Locharbriggs, United Kingdom
Current Conditions -  °F | °C
As of 1:50 PM on Tuesday 27 Jan 2015 (Local Time) from EGOM Reporting Station
Haze Haze  
Wind Chill: 31°   Ceiling: 200
Heat Index: 41°   Visibility: 4mi
Dew Point: 41°   Wind: 24mph
Humidity: 100%   Direction: 240°WSW
Pressure: 30.09"   Gusts: NA
Location:  55.1°N, 3.58°W
Report Text: EGOM 271350Z 24021KT 7000 BR OVC002 05/05 Q1019 AMB
Loading
Personal Weather Stations






























Interactive Weather Map New forecast layout! Learn more

10-Day Weather Forecast

Advertisements
Track Severe Weather on mobile